createdAt,value
2023-05-03T10:26:14.927Z,100624.63
2023-05-03T10:31:49.135Z,100653.25
2023-05-03T10:36:53.829Z,100616.41
2023-05-03T10:42:04.543Z,100612.22
2023-05-03T10:47:19.117Z,100649.00
2023-05-03T10:52:36.613Z,100658.44
2023-05-03T10:57:41.918Z,100553.38
2023-05-03T11:03:14.141Z,100610.47
2023-05-03T11:08:18.855Z,100629.53
2023-05-03T11:13:21.218Z,100517.06
2023-05-03T11:18:27.359Z,100639.31
2023-05-03T11:23:30.296Z,100544.81
2023-05-03T11:28:32.857Z,100536.59
2023-05-03T11:33:36.920Z,100608.84
2023-05-03T11:38:40.486Z,100555.56
2023-05-03T11:43:44.417Z,100589.19
2023-05-03T11:48:49.418Z,100534.78
2023-05-03T11:53:52.766Z,100590.66
2023-05-03T11:58:57.894Z,100525.47
2023-05-03T12:04:05.897Z,100508.84
2023-05-03T12:09:18.411Z,100515.31
2023-05-03T12:14:25.019Z,100575.19
2023-05-03T12:19:32.907Z,100527.91
2023-05-03T12:24:38.838Z,100550.22
2023-05-03T12:29:42.050Z,100556.56
2023-05-03T12:34:46.751Z,100548.00
2023-05-03T12:39:58.460Z,100551.19
2023-05-03T12:45:15.243Z,100510.91
2023-05-03T12:50:19.040Z,100404.34
2023-05-03T12:55:25.449Z,100409.81
2023-05-03T13:00:35.592Z,100444.28
2023-05-03T13:05:39.667Z,100475.69
2023-05-03T13:10:43.371Z,100452.78
2023-05-03T13:15:45.794Z,100462.16
2023-05-03T13:20:49.538Z,100462.56
2023-05-03T13:25:54.662Z,100462.09
2023-05-03T13:30:57.605Z,100452.28
2023-05-03T13:36:00.040Z,100391.56
2023-05-03T13:41:08.926Z,100513.84
2023-05-03T13:46:11.497Z,100511.72
2023-05-03T13:51:14.568Z,100500.75
2023-05-03T13:56:18.170Z,100438.19
2023-05-03T14:01:20.696Z,100503.25
2023-05-03T14:06:26.114Z,100445.00
2023-05-03T14:11:29.051Z,100490.78
2023-05-03T14:16:41.010Z,100601.38
2023-05-03T14:21:45.636Z,100556.41
2023-05-03T14:26:48.661Z,100644.75
2023-05-03T14:31:51.004Z,100630.97
2023-05-03T14:36:53.300Z,100629.34
2023-05-03T14:41:56.517Z,100599.25
2023-05-03T14:46:59.474Z,100718.56
2023-05-03T14:52:02.057Z,100650.84
2023-05-03T14:57:05.104Z,100667.50
2023-05-03T15:02:07.508Z,100645.22
2023-05-03T15:07:10.190Z,100649.41
2023-05-03T15:12:12.462Z,100685.13
2023-05-03T15:17:14.742Z,100680.75
2023-05-03T15:22:17.748Z,100675.34
2023-05-03T15:27:20.150Z,100692.41
2023-05-03T15:32:22.565Z,100659.97
2023-05-03T15:37:33.858Z,100683.28
2023-05-03T15:42:37.115Z,100652.72
2023-05-03T15:47:39.572Z,100677.88
2023-05-03T15:52:42.640Z,100661.03
2023-05-03T15:57:45.956Z,100636.53
2023-05-03T16:02:48.307Z,100650.09
2023-05-03T16:07:51.332Z,100652.34
2023-05-03T16:12:53.695Z,100638.22
2023-05-03T16:17:56.903Z,100663.94
2023-05-03T16:22:59.228Z,100665.81
2023-05-03T16:28:02.385Z,100658.94
2023-05-03T16:33:05.231Z,100653.53
2023-05-03T16:38:10.654Z,100631.91
2023-05-03T16:43:12.912Z,100630.44
2023-05-03T16:48:15.945Z,100621.88
2023-05-03T16:53:18.308Z,100586.22
2023-05-03T16:58:21.321Z,100614.81
2023-05-03T17:03:23.658Z,100623.94
2023-05-03T17:08:26.529Z,100655.66
2023-05-03T17:13:28.838Z,100635.53
2023-05-03T17:18:31.891Z,100640.78
2023-05-03T17:23:36.582Z,100681.44
2023-05-03T17:28:39.141Z,100671.69
2023-05-03T17:33:41.331Z,100660.16
2023-05-03T17:38:43.608Z,100685.88
2023-05-03T17:43:45.969Z,100643.34
2023-05-03T17:48:48.931Z,100644.56
2023-05-03T17:53:55.487Z,100683.00
2023-05-03T17:58:58.186Z,100673.44
2023-05-03T18:04:01.241Z,100664.34
2023-05-03T18:09:06.273Z,100665.59
2023-05-03T18:14:09.498Z,100706.13
2023-05-03T18:19:13.009Z,100691.34
2023-05-03T18:24:16.524Z,100655.69
2023-05-03T18:29:18.937Z,100673.50
2023-05-03T18:34:21.382Z,100682.25
2023-05-03T18:39:23.654Z,100699.03
2023-05-03T18:44:26.782Z,100685.56
2023-05-03T18:49:29.188Z,100691.38
2023-05-03T18:54:32.529Z,100719.44
2023-05-03T18:59:38.457Z,100706.50
2023-05-03T19:04:45.344Z,100724.00
2023-05-03T19:09:47.951Z,100720.88
2023-05-03T19:14:50.422Z,100751.84
2023-05-03T19:19:52.748Z,100745.19
2023-05-03T19:24:55.170Z,100735.44
2023-05-03T19:29:58.400Z,100697.34
2023-05-03T19:35:00.581Z,100752.44
2023-05-03T19:40:03.180Z,100734.19
2023-05-03T19:45:06.294Z,100691.56
2023-05-03T19:50:08.884Z,100771.78
2023-05-03T19:55:11.954Z,100766.34
2023-05-03T20:00:17.970Z,100715.25
2023-05-03T20:05:20.422Z,100744.97
2023-05-03T20:10:22.900Z,100747.25
2023-05-03T20:15:25.052Z,100742.69
2023-05-03T20:20:27.643Z,100740.41
2023-05-03T20:25:29.810Z,100769.50
2023-05-03T20:30:33.418Z,100744.16
2023-05-03T20:35:38.225Z,100751.44
2023-05-03T20:40:40.441Z,100762.22
2023-05-03T20:45:42.678Z,100770.94
2023-05-03T20:50:44.868Z,100767.84
2023-05-03T20:55:47.101Z,100775.53
2023-05-03T21:00:52.072Z,100775.75
2023-05-03T21:05:54.381Z,100764.72
2023-05-03T21:10:56.740Z,100730.66
2023-05-03T21:15:59.043Z,100684.91
2023-05-03T21:21:01.391Z,100681.63
2023-05-03T21:26:04.181Z,100756.63
2023-05-03T21:31:06.348Z,100765.94
2023-05-03T21:36:08.758Z,100764.03
2023-05-03T21:41:11.285Z,100699.41
2023-05-03T21:46:13.584Z,100721.41
2023-05-03T21:51:23.401Z,100755.28
2023-05-03T21:56:25.394Z,100775.72
2023-05-03T22:01:27.662Z,100778.75
2023-05-03T22:06:31.420Z,100773.28
2023-05-03T22:11:33.656Z,100778.97
2023-05-03T22:16:42.308Z,100753.81
2023-05-03T22:21:44.460Z,100744.69
2023-05-03T22:26:46.872Z,100744.69
2023-05-03T22:31:49.164Z,100744.69
2023-05-03T22:36:51.620Z,100736.38
2023-05-03T22:41:53.949Z,100735.97
2023-05-03T22:46:56.253Z,100748.22
2023-05-03T22:51:58.458Z,100738.03
2023-05-03T22:57:00.798Z,100748.41
2023-05-03T23:02:02.981Z,100709.97
2023-05-03T23:07:05.451Z,100719.13
2023-05-03T23:12:08.094Z,100729.13
2023-05-03T23:17:11.139Z,100711.88
2023-05-03T23:22:13.673Z,100724.97
2023-05-03T23:27:16.150Z,100736.78
2023-05-03T23:32:18.633Z,100726.81
2023-05-03T23:37:21.552Z,100732.44
2023-05-03T23:42:23.803Z,100722.44
2023-05-03T23:47:26.378Z,100683.75
2023-05-03T23:52:28.687Z,100683.38
2023-05-03T23:57:30.871Z,100727.19
